Time;durP1;ratioP1;P1;durP2;ratioP2;P2;SDS_P1;SDS_P2;PMS_P1;PMS_P2;Temp;Humidity;BMP_temperature;BMP_pressure;BME280_temperature;BME280_humidity;BME280_pressure;Samples;Min_cycle;Max_cycle;Signal;HPM_P1;HPM_P2
2021/03/29 00:01:29;;;;;;;;;;;27.70;21.30;;;;;;5054226;28;19912;-73
2021/03/29 00:03:55;;;;;;;;;;;27.70;20.70;;;;;;5054589;28;20289;-73
2021/03/29 00:06:23;;;;;;;;;;;27.70;21.10;;;;;;5050411;28;19916;-72
2021/03/29 00:08:49;;;;;;;;;;;27.80;21.50;;;;;;5055321;28;19943;-73
2021/03/29 00:11:16;;;;;;;;;;;27.70;21.50;;;;;;5037846;28;19908;-74
2021/03/29 00:13:43;;;;;;;;;;;27.70;20.10;;;;;;5053685;28;19920;-73
2021/03/29 00:16:09;;;;;;;;;;;27.70;21.00;;;;;;5055706;28;19909;-73
2021/03/29 00:18:35;;;;;;;;;;;27.50;19.80;;;;;;5056719;28;20350;-73
2021/03/29 00:21:05;;;;;;;;;;;27.50;19.80;;;;;;5053649;28;19968;-74
2021/03/29 00:23:31;;;;;;;;;;;27.30;19.70;;;;;;5055915;28;20198;-73
2021/03/29 00:25:57;;;;;;;;;;;27.40;19.70;;;;;;5056248;28;19985;-73
2021/03/29 00:28:23;;;;;;;;;;;27.20;20.80;;;;;;5055454;28;20043;-73
2021/03/29 00:30:49;;;;;;;;;;;27.30;19.60;;;;;;5034510;28;19917;-73
2021/03/29 00:33:16;;;;;;;;;;;27.30;19.70;;;;;;5057621;28;20342;-73
2021/03/29 00:35:44;;;;;;;;;;;27.50;19.30;;;;;;5057723;28;19990;-73
2021/03/29 00:38:12;;;;;;;;;;;26.90;19.60;;;;;;5056792;28;19912;-73
2021/03/29 00:40:40;;;;;;;;;;;27.00;20.00;;;;;;5056718;28;19909;-73
2021/03/29 00:43:17;;;;;;;;;;;26.60;21.60;;;;;;5037655;28;19920;-73
2021/03/29 00:45:44;;;;;;;;;;;26.50;22.50;;;;;;5057113;28;19997;-74
2021/03/29 00:48:11;;;;;;;;;;;26.60;26.00;;;;;;5053337;28;19925;-74
2021/03/29 00:50:42;;;;;;;;;;;26.80;26.00;;;;;;5039252;28;19909;-73
2021/03/29 00:53:10;;;;;;;;;;;26.80;26.20;;;;;;5055145;28;19920;-73
2021/03/29 00:55:36;;;;;;;;;;;26.80;26.20;;;;;;5056047;28;19959;-73
2021/03/29 00:58:03;;;;;;;;;;;26.70;26.60;;;;;;5053979;28;19963;-73
2021/03/29 01:00:40;;;;;;;;;;;26.70;26.70;;;;;;5054993;28;19908;-74
2021/03/29 01:03:09;;;;;;;;;;;26.70;26.80;;;;;;5055576;28;19925;-74
2021/03/29 01:05:35;;;;;;;;;;;26.60;27.00;;;;;;5054557;28;20003;-73
2021/03/29 01:08:01;;;;;;;;;;;26.40;27.20;;;;;;5055441;28;20309;-73
2021/03/29 01:10:27;;;;;;;;;;;26.40;27.90;;;;;;5056303;28;19995;-73
2021/03/29 01:12:56;;;;;;;;;;;26.30;28.40;;;;;;5043160;28;19917;-73
2021/03/29 01:15:22;;;;;;;;;;;26.10;28.40;;;;;;5035994;28;19908;-73
2021/03/29 01:17:48;;;;;;;;;;;25.90;28.80;;;;;;5038401;28;19909;-73
2021/03/29 01:20:18;;;;;;;;;;;25.60;28.70;;;;;;5055337;28;20055;-74
2021/03/29 01:22:45;;;;;;;;;;;25.40;28.80;;;;;;5035964;28;20351;-73
2021/03/29 01:25:11;;;;;;;;;;;25.10;28.70;;;;;;5054452;28;20004;-74
2021/03/29 01:27:57;;;;;;;;;;;25.00;29.00;;;;;;5055638;28;19995;-74
2021/03/29 01:30:24;;;;;;;;;;;24.70;29.10;;;;;;5042685;28;19959;-73
2021/03/29 01:32:50;;;;;;;;;;;24.60;29.50;;;;;;5056070;28;19909;-72
2021/03/29 01:35:18;;;;;;;;;;;24.50;29.80;;;;;;5055442;28;19930;-73
2021/03/29 01:37:46;;;;;;;;;;;24.30;30.00;;;;;;5056025;28;20373;-72
2021/03/29 01:40:13;;;;;;;;;;;24.20;30.50;;;;;;5056493;28;19913;-73
2021/03/29 01:42:40;;;;;;;;;;;23.80;30.30;;;;;;5055760;28;19938;-72
2021/03/29 01:45:07;;;;;;;;;;;23.50;30.40;;;;;;5037674;28;19916;-72
2021/03/29 01:47:33;;;;;;;;;;;23.30;31.20;;;;;;5055814;28;19939;-72
2021/03/29 01:49:59;;;;;;;;;;;23.10;31.10;;;;;;5056767;28;20277;-73
2021/03/29 01:52:25;;;;;;;;;;;23.10;31.40;;;;;;5055132;28;19909;-73
2021/03/29 01:54:52;;;;;;;;;;;23.10;31.70;;;;;;5057521;28;19939;-73
2021/03/29 01:57:18;;;;;;;;;;;23.10;31.70;;;;;;5055516;28;19967;-72
2021/03/29 01:59:44;;;;;;;;;;;22.90;32.00;;;;;;5055357;28;20188;-72
2021/03/29 02:02:11;;;;;;;;;;;22.70;32.10;;;;;;5055395;28;19904;-72
2021/03/29 02:04:38;;;;;;;;;;;22.40;31.90;;;;;;5036506;28;20425;-74
2021/03/29 02:07:06;;;;;;;;;;;22.20;32.00;;;;;;5038360;28;19912;-73
2021/03/29 02:09:32;;;;;;;;;;;21.80;32.00;;;;;;5055772;28;20350;-73
2021/03/29 02:11:59;;;;;;;;;;;21.50;33.20;;;;;;5055805;28;20428;-74
2021/03/29 02:14:26;;;;;;;;;;;21.10;36.40;;;;;;5055596;28;19905;-73
2021/03/29 02:16:54;;;;;;;;;;;20.80;36.50;;;;;;5055919;28;20238;-73
2021/03/29 02:19:21;;;;;;;;;;;20.50;37.90;;;;;;5055245;28;19972;-74
2021/03/29 02:21:49;;;;;;;;;;;20.30;37.40;;;;;;5051917;28;19962;-74
2021/03/29 02:24:15;;;;;;;;;;;20.50;35.10;;;;;;5054875;28;19905;-74
2021/03/29 02:26:42;;;;;;;;;;;20.10;36.90;;;;;;5038940;28;20224;-74
2021/03/29 02:29:08;;;;;;;;;;;20.00;34.50;;;;;;5036115;28;19905;-73
2021/03/29 02:31:35;;;;;;;;;;;20.00;34.30;;;;;;5035813;28;19917;-74
2021/03/29 02:34:03;;;;;;;;;;;20.00;34.60;;;;;;5056127;28;20392;-74
2021/03/29 02:36:29;;;;;;;;;;;20.00;34.50;;;;;;5050105;28;19943;-74
2021/03/29 02:38:56;;;;;;;;;;;19.90;35.00;;;;;;5050928;28;19909;-73
2021/03/29 02:41:23;;;;;;;;;;;19.60;36.30;;;;;;5052846;28;20003;-73
2021/03/29 02:43:50;;;;;;;;;;;19.50;35.80;;;;;;5033990;28;20000;-74
2021/03/29 02:46:17;;;;;;;;;;;19.60;35.40;;;;;;5049870;28;19962;-73
2021/03/29 02:48:45;;;;;;;;;;;19.30;35.10;;;;;;5050730;28;19999;-74
2021/03/29 02:51:12;;;;;;;;;;;19.20;35.40;;;;;;5049456;28;19928;-73
2021/03/29 02:53:39;;;;;;;;;;;19.00;35.70;;;;;;5051850;28;19909;-75
2021/03/29 02:56:09;;;;;;;;;;;18.60;39.50;;;;;;5052707;28;19913;-74
2021/03/29 02:58:37;;;;;;;;;;;18.40;37.50;;;;;;5056051;28;20330;-74
2021/03/29 03:01:03;;;;;;;;;;;18.40;36.00;;;;;;5034068;28;20347;-73
2021/03/29 03:03:30;;;;;;;;;;;18.20;41.20;;;;;;5050976;28;19920;-75
2021/03/29 03:05:56;;;;;;;;;;;18.00;38.60;;;;;;5051233;28;19978;-74
2021/03/29 03:08:22;;;;;;;;;;;17.80;41.70;;;;;;5037205;28;19912;-75
2021/03/29 03:10:48;;;;;;;;;;;17.40;45.50;;;;;;5053420;28;19920;-74
2021/03/29 03:13:15;;;;;;;;;;;17.30;44.00;;;;;;5052806;28;21660;-74
2021/03/29 03:15:41;;;;;;;;;;;17.20;41.60;;;;;;5052425;28;20031;-75
2021/03/29 03:18:09;;;;;;;;;;;17.00;46.40;;;;;;5053789;28;19909;-75
2021/03/29 03:20:35;;;;;;;;;;;16.80;44.50;;;;;;5046872;28;19915;-75
2021/03/29 03:23:03;;;;;;;;;;;16.60;41.70;;;;;;5052855;28;19944;-74
2021/03/29 03:25:37;;;;;;;;;;;16.60;44.00;;;;;;5047404;28;19999;-74
2021/03/29 03:28:04;;;;;;;;;;;16.40;46.20;;;;;;5052669;28;19952;-74
2021/03/29 03:30:38;;;;;;;;;;;16.30;45.50;;;;;;5054884;28;19974;-75
2021/03/29 03:33:06;;;;;;;;;;;16.10;47.00;;;;;;5054300;28;19951;-74
2021/03/29 03:35:32;;;;;;;;;;;16.10;44.40;;;;;;5048234;28;19932;-74
2021/03/29 03:38:00;;;;;;;;;;;16.00;45.80;;;;;;5049710;28;19924;-75
2021/03/29 03:40:27;;;;;;;;;;;16.10;41.90;;;;;;5050174;28;20393;-74
2021/03/29 03:42:55;;;;;;;;;;;16.30;41.20;;;;;;5053839;28;19915;-74
2021/03/29 03:45:24;;;;;;;;;;;16.50;43.30;;;;;;5041399;28;20337;-75
2021/03/29 03:47:51;;;;;;;;;;;16.60;41.80;;;;;;5065360;28;20250;-75
2021/03/29 03:50:18;;;;;;;;;;;16.60;42.70;;;;;;5065708;28;19965;-74
2021/03/29 03:52:45;;;;;;;;;;;16.50;42.80;;;;;;5060409;28;19908;-74
2021/03/29 03:55:11;;;;;;;;;;;16.30;42.20;;;;;;5052827;28;19916;-73
2021/03/29 03:57:38;;;;;;;;;;;16.10;42.70;;;;;;5056033;28;19916;-72
2021/03/29 04:00:06;;;;;;;;;;;15.90;40.70;;;;;;5052798;28;19908;-73
2021/03/29 04:02:35;;;;;;;;;;;15.80;41.60;;;;;;5054924;28;19908;-73
2021/03/29 04:05:01;;;;;;;;;;;15.70;45.60;;;;;;5053863;28;20377;-72
2021/03/29 04:07:28;;;;;;;;;;;15.60;41.90;;;;;;5058388;28;20254;-73
2021/03/29 04:09:57;;;;;;;;;;;15.60;41.30;;;;;;5059145;28;19991;-72
2021/03/29 04:12:24;;;;;;;;;;;15.70;41.40;;;;;;5056948;28;19923;-73
2021/03/29 04:14:50;;;;;;;;;;;15.60;41.10;;;;;;5051761;28;20443;-72
2021/03/29 04:17:16;;;;;;;;;;;15.70;43.10;;;;;;5054910;28;19955;-72
2021/03/29 04:19:42;;;;;;;;;;;15.50;45.40;;;;;;5051158;28;19909;-73
2021/03/29 04:22:09;;;;;;;;;;;15.10;46.90;;;;;;5054859;28;20326;-73
2021/03/29 04:24:35;;;;;;;;;;;15.00;47.30;;;;;;5057297;28;19927;-73
2021/03/29 04:27:01;;;;;;;;;;;15.10;42.30;;;;;;5057859;28;20299;-73
2021/03/29 04:29:27;;;;;;;;;;;15.10;42.50;;;;;;5057031;28;20326;-73
2021/03/29 04:31:53;;;;;;;;;;;15.20;45.30;;;;;;5056396;28;20271;-73
2021/03/29 04:34:19;;;;;;;;;;;15.30;44.20;;;;;;5055259;28;19912;-74
2021/03/29 04:36:45;;;;;;;;;;;15.40;44.90;;;;;;5057780;28;19928;-73
2021/03/29 04:39:11;;;;;;;;;;;15.40;45.40;;;;;;5036443;28;19908;-73
2021/03/29 04:41:37;;;;;;;;;;;15.40;46.10;;;;;;5038655;28;19921;-73
2021/03/29 04:44:04;;;;;;;;;;;15.30;45.40;;;;;;5057518;28;20315;-72
2021/03/29 04:46:30;;;;;;;;;;;15.20;45.90;;;;;;5055457;28;19923;-72
2021/03/29 04:48:56;;;;;;;;;;;14.80;45.30;;;;;;5037855;28;20319;-72
2021/03/29 04:51:22;;;;;;;;;;;14.80;45.40;;;;;;5057111;28;20319;-72
2021/03/29 04:53:48;;;;;;;;;;;14.50;48.30;;;;;;5060046;28;19909;-72
2021/03/29 04:56:14;;;;;;;;;;;14.50;44.20;;;;;;5059345;28;19986;-73
2021/03/29 04:58:40;;;;;;;;;;;14.50;44.70;;;;;;5063577;28;20099;-73
2021/03/29 05:01:06;;;;;;;;;;;14.40;43.40;;;;;;5070016;28;20342;-74
2021/03/29 05:03:32;;;;;;;;;;;14.30;43.20;;;;;;5066225;28;19904;-73
2021/03/29 05:05:58;;;;;;;;;;;14.30;42.80;;;;;;5068217;28;19904;-75
2021/03/29 05:08:24;;;;;;;;;;;14.30;43.20;;;;;;5052363;28;19952;-73
2021/03/29 05:10:50;;;;;;;;;;;14.40;44.30;;;;;;5069762;28;19977;-73
2021/03/29 05:13:16;;;;;;;;;;;14.40;44.60;;;;;;5069848;28;19962;-73
2021/03/29 05:15:42;;;;;;;;;;;14.40;47.10;;;;;;5041889;28;19904;-74
2021/03/29 05:18:08;;;;;;;;;;;14.30;45.50;;;;;;5058301;28;19915;-73
2021/03/29 05:20:34;;;;;;;;;;;14.30;46.50;;;;;;5057891;28;19942;-74
2021/03/29 05:23:00;;;;;;;;;;;14.20;46.00;;;;;;5052505;28;20011;-73
2021/03/29 05:25:26;;;;;;;;;;;14.10;46.30;;;;;;5043611;28;19919;-73
2021/03/29 05:27:54;;;;;;;;;;;14.00;46.20;;;;;;5032305;28;20309;-74
2021/03/29 05:30:20;;;;;;;;;;;14.00;47.90;;;;;;5038546;28;19966;-73
2021/03/29 05:32:46;;;;;;;;;;;14.10;47.90;;;;;;5055021;28;19921;-73
2021/03/29 05:35:12;;;;;;;;;;;14.10;49.50;;;;;;5046582;28;19918;-72
2021/03/29 05:37:38;;;;;;;;;;;14.00;47.70;;;;;;5052826;28;20326;-74
2021/03/29 05:40:05;;;;;;;;;;;13.90;49.00;;;;;;5056786;28;19997;-73
2021/03/29 05:42:31;;;;;;;;;;;13.90;51.50;;;;;;5054980;28;19909;-73
2021/03/29 05:45:15;;;;;;;;;;;13.90;51.90;;;;;;5057084;28;19913;-74
2021/03/29 05:47:42;;;;;;;;;;;13.80;51.30;;;;;;5055615;28;19913;-72
2021/03/29 05:50:12;;;;;;;;;;;13.60;49.50;;;;;;5053080;28;19913;-73
2021/03/29 05:52:39;;;;;;;;;;;13.50;50.90;;;;;;5053246;28;19999;-73
2021/03/29 05:55:09;;;;;;;;;;;13.70;54.20;;;;;;5054608;28;19908;-72
2021/03/29 06:00:35;;;;;;;;;;;13.40;54.10;;;;;;5054742;28;20259;-73
2021/03/29 06:03:20;;;;;;;;;;;13.30;52.30;;;;;;5057412;28;19915;-73
2021/03/29 06:05:46;;;;;;;;;;;13.20;54.00;;;;;;5055433;28;19909;-72
2021/03/29 06:08:13;;;;;;;;;;;13.10;53.20;;;;;;5049354;28;19920;-71
2021/03/29 06:10:39;;;;;;;;;;;13.20;55.70;;;;;;5055089;28;19908;-73
2021/03/29 06:13:19;;;;;;;;;;;13.20;53.60;;;;;;5054001;28;19923;-72
2021/03/29 06:15:46;;;;;;;;;;;13.00;56.20;;;;;;5054392;28;19909;-72
2021/03/29 06:18:12;;;;;;;;;;;12.80;51.70;;;;;;5052530;28;19915;-73
2021/03/29 06:20:57;;;;;;;;;;;12.60;57.00;;;;;;5035141;28;19908;-73
2021/03/29 06:23:23;;;;;;;;;;;12.80;55.80;;;;;;5054160;28;19924;-72
2021/03/29 06:25:49;;;;;;;;;;;12.90;53.40;;;;;;5036538;28;19909;-73
2021/03/29 06:28:23;;;;;;;;;;;13.10;54.60;;;;;;5052490;28;20334;-73
2021/03/29 06:30:49;;;;;;;;;;;13.20;55.50;;;;;;5036780;28;19912;-72
2021/03/29 06:33:16;;;;;;;;;;;13.10;54.60;;;;;;5036167;28;19920;-72
2021/03/29 06:35:46;;;;;;;;;;;13.10;54.00;;;;;;5053447;28;19978;-73
2021/03/29 06:38:17;;;;;;;;;;;13.10;56.00;;;;;;5047759;28;20335;-72
2021/03/29 06:40:45;;;;;;;;;;;13.00;55.90;;;;;;5054277;28;19905;-74
2021/03/29 06:43:23;;;;;;;;;;;12.90;53.80;;;;;;5053406;28;19913;-73
2021/03/29 06:45:50;;;;;;;;;;;12.90;55.10;;;;;;5053480;28;20337;-72
2021/03/29 06:48:20;;;;;;;;;;;13.00;58.40;;;;;;5053101;28;19917;-72
2021/03/29 06:50:46;;;;;;;;;;;13.10;55.90;;;;;;5052395;28;19912;-73
2021/03/29 06:53:24;;;;;;;;;;;13.00;55.90;;;;;;5036970;28;19909;-73
2021/03/29 06:55:52;;;;;;;;;;;13.10;58.90;;;;;;5054113;28;19909;-72
2021/03/29 06:58:24;;;;;;;;;;;13.10;58.80;;;;;;5054024;28;19947;-72
2021/03/29 07:00:53;;;;;;;;;;;13.20;58.80;;;;;;5052333;28;19916;-73
2021/03/29 07:03:20;;;;;;;;;;;13.10;56.90;;;;;;5054926;28;19962;-72
2021/03/29 07:05:48;;;;;;;;;;;13.10;56.40;;;;;;5055151;28;19942;-73
2021/03/29 07:08:14;;;;;;;;;;;13.00;56.70;;;;;;5055300;28;19924;-73
2021/03/29 07:10:40;;;;;;;;;;;12.90;54.70;;;;;;5053839;28;19908;-72
2021/03/29 07:13:08;;;;;;;;;;;12.80;55.10;;;;;;5055022;28;19921;-72
2021/03/29 07:15:35;;;;;;;;;;;12.70;53.70;;;;;;5056181;28;19904;-73
2021/03/29 07:18:01;;;;;;;;;;;12.60;58.60;;;;;;5056482;28;20308;-73
2021/03/29 07:20:29;;;;;;;;;;;12.60;55.50;;;;;;5060232;28;19904;-73
2021/03/29 07:22:55;;;;;;;;;;;12.50;54.50;;;;;;5059998;28;19919;-73
2021/03/29 07:25:28;;;;;;;;;;;12.50;53.40;;;;;;5059122;28;19932;-73
2021/03/29 07:27:55;;;;;;;;;;;12.40;56.60;;;;;;5059733;28;19916;-72
2021/03/29 07:30:56;;;;;;;;;;;12.40;55.10;;;;;;5059198;28;19908;-72
2021/03/29 07:33:23;;;;;;;;;;;12.30;54.10;;;;;;5037459;28;19913;-73
2021/03/29 07:35:53;;;;;;;;;;;12.30;55.30;;;;;;5059918;28;19912;-73
2021/03/29 07:38:20;;;;;;;;;;;12.30;53.50;;;;;;5059225;28;19908;-73
2021/03/29 07:40:47;;;;;;;;;;;12.40;53.00;;;;;;5061366;28;19912;-72
2021/03/29 07:43:15;;;;;;;;;;;12.30;51.10;;;;;;5061625;28;19904;-73
2021/03/29 07:45:43;;;;;;;;;;;12.40;51.40;;;;;;5055757;28;19908;-73
2021/03/29 07:48:09;;;;;;;;;;;12.40;51.60;;;;;;5039193;28;19978;-73
2021/03/29 07:50:35;;;;;;;;;;;12.40;51.60;;;;;;5059041;28;19970;-73
2021/03/29 07:53:06;;;;;;;;;;;12.40;51.90;;;;;;5059582;28;19999;-73
2021/03/29 07:55:35;;;;;;;;;;;12.40;51.40;;;;;;5059316;28;19904;-73
2021/03/29 07:58:05;;;;;;;;;;;12.40;51.90;;;;;;5059336;28;19909;-74
2021/03/29 08:00:31;;;;;;;;;;;12.40;51.20;;;;;;5056024;28;20353;-73
2021/03/29 08:02:58;;;;;;;;;;;12.50;51.90;;;;;;5059537;28;19994;-72
2021/03/29 08:05:38;;;;;;;;;;;12.50;51.80;;;;;;5041327;28;19908;-75
2021/03/29 08:08:27;;;;;;;;;;;12.40;51.80;;;;;;5058938;28;19912;-73
2021/03/29 08:10:57;;;;;;;;;;;12.50;53.30;;;;;;5059465;28;19983;-73
2021/03/29 08:13:35;;;;;;;;;;;12.50;53.30;;;;;;5058525;28;19915;-73
2021/03/29 08:16:03;;;;;;;;;;;12.40;52.60;;;;;;5040899;28;20297;-74
2021/03/29 08:18:29;;;;;;;;;;;12.20;53.10;;;;;;5059305;28;19908;-73
2021/03/29 08:20:56;;;;;;;;;;;12.20;52.30;;;;;;5059278;28;19905;-74
2021/03/29 08:23:40;;;;;;;;;;;12.00;52.30;;;;;;5057873;28;19962;-73
2021/03/29 08:26:10;;;;;;;;;;;11.90;52.60;;;;;;5058960;28;19917;-74
2021/03/29 08:28:54;;;;;;;;;;;11.90;52.10;;;;;;5040103;28;19920;-73
2021/03/29 08:31:39;;;;;;;;;;;12.00;52.40;;;;;;5057331;28;19940;-73
2021/03/29 08:34:05;;;;;;;;;;;11.90;52.70;;;;;;5057138;28;19913;-73
2021/03/29 08:36:32;;;;;;;;;;;11.90;53.40;;;;;;5058726;28;19917;-72
2021/03/29 08:38:59;;;;;;;;;;;11.80;52.50;;;;;;5057740;28;19909;-73
2021/03/29 08:41:25;;;;;;;;;;;11.80;53.60;;;;;;5057004;28;20264;-73
2021/03/29 08:43:51;;;;;;;;;;;11.80;53.40;;;;;;5058703;28;19905;-74
2021/03/29 08:46:17;;;;;;;;;;;11.80;52.50;;;;;;5057635;28;19928;-73
2021/03/29 08:48:47;;;;;;;;;;;11.80;52.80;;;;;;5058620;28;19908;-75
2021/03/29 08:51:22;;;;;;;;;;;11.70;52.80;;;;;;5058016;28;19927;-73
2021/03/29 08:54:03;;;;;;;;;;;11.60;54.20;;;;;;5040036;28;19996;-73
2021/03/29 08:56:38;;;;;;;;;;;11.60;52.70;;;;;;5058079;28;19904;-74
2021/03/29 08:59:04;;;;;;;;;;;11.50;53.80;;;;;;5056810;28;20244;-73
2021/03/29 09:01:30;;;;;;;;;;;11.60;52.60;;;;;;5057891;28;19949;-73
2021/03/29 09:04:14;;;;;;;;;;;11.70;54.30;;;;;;5054836;28;19916;-72
2021/03/29 09:06:40;;;;;;;;;;;11.80;54.00;;;;;;5058044;28;19916;-74
2021/03/29 09:09:17;;;;;;;;;;;11.70;54.90;;;;;;5056735;28;19920;-72
2021/03/29 09:11:47;;;;;;;;;;;11.70;55.00;;;;;;5058073;28;19904;-72
2021/03/29 09:14:17;;;;;;;;;;;11.70;54.30;;;;;;5056909;28;19940;-75
2021/03/29 09:16:47;;;;;;;;;;;11.60;54.10;;;;;;5056216;28;19905;-73
2021/03/29 09:19:17;;;;;;;;;;;11.40;54.00;;;;;;5057271;28;19916;-72
2021/03/29 09:21:44;;;;;;;;;;;11.50;53.10;;;;;;5039590;28;19909;-71
2021/03/29 09:24:20;;;;;;;;;;;11.40;53.70;;;;;;5057851;28;19919;-72
2021/03/29 09:27:06;;;;;;;;;;;11.40;52.80;;;;;;5058137;28;20238;-71
2021/03/29 09:29:34;;;;;;;;;;;11.50;53.10;;;;;;5058340;28;19913;-71
2021/03/29 09:32:07;;;;;;;;;;;11.50;54.10;;;;;;5056536;28;20330;-71
2021/03/29 09:34:33;;;;;;;;;;;11.50;55.10;;;;;;5056720;28;19974;-72
2021/03/29 09:36:59;;;;;;;;;;;11.50;54.90;;;;;;5042309;28;19912;-71
2021/03/29 09:39:30;;;;;;;;;;;11.50;56.70;;;;;;5041152;28;19913;-72
2021/03/29 09:41:56;;;;;;;;;;;11.40;55.60;;;;;;5041156;28;20350;-71
2021/03/29 09:44:28;;;;;;;;;;;11.30;54.90;;;;;;5039950;28;19965;-71
2021/03/29 09:46:55;;;;;;;;;;;11.30;54.60;;;;;;5036381;28;19957;-73
2021/03/29 09:49:22;;;;;;;;;;;11.40;55.20;;;;;;5055873;28;19923;-72
2021/03/29 09:51:49;;;;;;;;;;;11.40;56.80;;;;;;5057162;28;19905;-72
2021/03/29 09:54:29;;;;;;;;;;;11.50;57.00;;;;;;5056107;28;19916;-72
2021/03/29 09:56:56;;;;;;;;;;;11.40;56.80;;;;;;5047353;28;19909;-72
2021/03/29 09:59:26;;;;;;;;;;;11.40;57.60;;;;;;5057510;28;20409;-72
2021/03/29 10:01:52;;;;;;;;;;;11.40;57.70;;;;;;5039322;28;19905;-72
2021/03/29 10:04:19;;;;;;;;;;;11.40;58.40;;;;;;5056036;28;20010;-73
2021/03/29 10:06:55;;;;;;;;;;;11.40;59.10;;;;;;5056992;28;20323;-72
2021/03/29 10:09:29;;;;;;;;;;;11.40;58.90;;;;;;5038279;28;20235;-73
2021/03/29 10:11:55;;;;;;;;;;;11.30;57.30;;;;;;5057144;28;19916;-73
2021/03/29 10:14:29;;;;;;;;;;;11.20;57.70;;;;;;5056330;28;19952;-74
2021/03/29 10:16:55;;;;;;;;;;;11.00;57.20;;;;;;5039302;28;19963;-73
2021/03/29 10:19:29;;;;;;;;;;;11.00;56.80;;;;;;5039123;28;19943;-73
2021/03/29 10:22:01;;;;;;;;;;;10.80;56.70;;;;;;5056830;28;19904;-73
2021/03/29 10:24:28;;;;;;;;;;;10.80;57.30;;;;;;5055705;28;19947;-74
2021/03/29 10:26:58;;;;;;;;;;;10.60;61.90;;;;;;5038936;28;19912;-73
2021/03/29 10:29:38;;;;;;;;;;;10.60;57.50;;;;;;5054981;28;19909;-74
2021/03/29 10:32:08;;;;;;;;;;;10.60;55.80;;;;;;5055864;28;19947;-75
2021/03/29 10:34:37;;;;;;;;;;;10.70;55.00;;;;;;5056883;28;19909;-73
2021/03/29 10:37:04;;;;;;;;;;;10.60;55.30;;;;;;5054707;28;19912;-73
2021/03/29 10:39:30;;;;;;;;;;;10.80;56.70;;;;;;5055857;28;19908;-74
2021/03/29 10:41:56;;;;;;;;;;;10.70;56.20;;;;;;5056478;28;19920;-73
2021/03/29 10:44:22;;;;;;;;;;;10.70;56.90;;;;;;5056740;28;19916;-72
2021/03/29 10:46:48;;;;;;;;;;;10.70;56.10;;;;;;5056523;28;19905;-73
2021/03/29 10:49:14;;;;;;;;;;;10.60;56.90;;;;;;5055918;28;20318;-72
2021/03/29 10:51:40;;;;;;;;;;;10.70;58.30;;;;;;5036904;28;20399;-73
2021/03/29 10:54:07;;;;;;;;;;;10.80;58.50;;;;;;5056217;28;19912;-73
2021/03/29 10:56:33;;;;;;;;;;;10.70;58.10;;;;;;5056448;28;19959;-72
2021/03/29 10:58:59;;;;;;;;;;;10.70;57.90;;;;;;5055503;28;20003;-73
2021/03/29 11:01:25;;;;;;;;;;;10.60;57.80;;;;;;5036087;28;19909;-72
2021/03/29 11:03:51;;;;;;;;;;;10.40;56.70;;;;;;5037243;28;19909;-73
2021/03/29 11:06:17;;;;;;;;;;;10.40;57.00;;;;;;5037189;28;19909;-73
2021/03/29 11:08:43;;;;;;;;;;;10.40;57.70;;;;;;5053945;28;19927;-73
2021/03/29 11:11:09;;;;;;;;;;;10.30;56.70;;;;;;5056316;28;19909;-73
2021/03/29 11:13:35;;;;;;;;;;;10.30;57.30;;;;;;5056651;28;19905;-73
2021/03/29 11:16:02;;;;;;;;;;;10.20;56.90;;;;;;5055340;28;19958;-75
2021/03/29 11:18:28;;;;;;;;;;;10.20;56.20;;;;;;5055993;28;19916;-75
2021/03/29 11:20:55;;;;;;;;;;;10.20;55.90;;;;;;5056061;28;19924;-73
2021/03/29 11:23:25;;;;;;;;;;;10.20;55.30;;;;;;5055776;28;19948;-74
2021/03/29 11:25:53;;;;;;;;;;;10.20;55.50;;;;;;5055345;28;19908;-73
2021/03/29 11:28:19;;;;;;;;;;;10.10;55.60;;;;;;5054292;28;19925;-72
2021/03/29 11:30:46;;;;;;;;;;;10.20;55.70;;;;;;5039080;28;20377;-74
2021/03/29 11:33:12;;;;;;;;;;;10.10;55.30;;;;;;5039636;28;19911;-72
2021/03/29 11:35:38;;;;;;;;;;;10.10;56.10;;;;;;5040262;28;19917;-72
2021/03/29 11:38:04;;;;;;;;;;;10.20;55.70;;;;;;5059605;28;19909;-72
2021/03/29 11:40:30;;;;;;;;;;;10.10;55.40;;;;;;5056918;28;20325;-73
2021/03/29 11:42:56;;;;;;;;;;;10.10;55.00;;;;;;5055176;28;19913;-74
2021/03/29 11:45:22;;;;;;;;;;;10.10;56.00;;;;;;5056046;28;19955;-73
2021/03/29 11:47:48;;;;;;;;;;;10.10;56.40;;;;;;5052682;28;20343;-73
2021/03/29 11:50:15;;;;;;;;;;;10.10;56.30;;;;;;5053646;28;19916;-73
2021/03/29 11:52:42;;;;;;;;;;;10.10;55.80;;;;;;5054497;28;20050;-72
2021/03/29 11:55:08;;;;;;;;;;;10.20;56.40;;;;;;5038399;28;19967;-73
2021/03/29 11:57:34;;;;;;;;;;;10.20;56.60;;;;;;5037564;28;20334;-72
2021/03/29 12:00:03;;;;;;;;;;;10.20;58.60;;;;;;5055492;28;19904;-73
2021/03/29 12:02:37;;;;;;;;;;;10.20;56.50;;;;;;5055026;28;19913;-72
2021/03/29 12:07:46;;;;;;;;;;;10.40;57.70;;;;;;5059154;28;19919;-73
2021/03/29 12:12:58;;;;;;;;;;;10.30;57.30;;;;;;5059516;28;20000;-73
2021/03/29 12:15:24;;;;;;;;;;;10.30;56.70;;;;;;5058669;28;19911;-74
2021/03/29 12:17:50;;;;;;;;;;;10.20;56.80;;;;;;5058928;28;19939;-73
2021/03/29 12:20:17;;;;;;;;;;;10.30;57.30;;;;;;5057445;28;19970;-72
2021/03/29 12:22:44;;;;;;;;;;;10.50;59.20;;;;;;5058886;28;19912;-73
2021/03/29 12:25:15;;;;;;;;;;;10.40;58.10;;;;;;5057853;28;19913;-72
2021/03/29 12:27:42;;;;;;;;;;;10.50;58.50;;;;;;5058592;28;19912;-73
2021/03/29 12:30:13;;;;;;;;;;;10.50;59.10;;;;;;5059096;28;20398;-73
2021/03/29 12:32:39;;;;;;;;;;;10.50;59.10;;;;;;5058949;28;19904;-72
2021/03/29 12:35:07;;;;;;;;;;;10.50;57.80;;;;;;5040942;28;19912;-73
2021/03/29 12:37:34;;;;;;;;;;;10.60;59.40;;;;;;5058169;28;19912;-74
2021/03/29 12:40:09;;;;;;;;;;;10.60;59.30;;;;;;5053381;28;19912;-73
2021/03/29 12:42:39;;;;;;;;;;;10.50;58.10;;;;;;5056694;28;20290;-72
2021/03/29 12:45:06;;;;;;;;;;;10.40;58.30;;;;;;5058738;28;20311;-73
2021/03/29 12:47:33;;;;;;;;;;;10.30;58.60;;;;;;5057910;28;19908;-72
2021/03/29 12:50:10;;;;;;;;;;;10.30;58.30;;;;;;5056686;28;19912;-73
2021/03/29 12:52:36;;;;;;;;;;;10.30;58.00;;;;;;5057255;28;20038;-74
2021/03/29 12:55:06;;;;;;;;;;;10.30;57.30;;;;;;5056645;28;19908;-73
2021/03/29 12:57:32;;;;;;;;;;;10.30;57.20;;;;;;5058248;28;19909;-73
2021/03/29 12:59:58;;;;;;;;;;;10.50;60.30;;;;;;5057752;28;19904;-73
2021/03/29 13:02:25;;;;;;;;;;;10.60;59.50;;;;;;5057829;28;19909;-73
2021/03/29 13:04:51;;;;;;;;;;;10.40;58.90;;;;;;5057590;28;20258;-73
2021/03/29 13:07:28;;;;;;;;;;;10.40;59.10;;;;;;5058487;28;19912;-73
2021/03/29 13:12:28;;;;;;;;;;;10.20;58.80;;;;;;5056513;28;19912;-74
2021/03/29 13:14:54;;;;;;;;;;;10.20;58.60;;;;;;5057469;28;19908;-74
2021/03/29 13:17:20;;;;;;;;;;;10.20;59.00;;;;;;5058574;28;19915;-73
2021/03/29 13:19:46;;;;;;;;;;;10.30;59.30;;;;;;5057872;28;19952;-73
2021/03/29 13:22:12;;;;;;;;;;;10.40;60.40;;;;;;5040448;28;19914;-73
2021/03/29 13:24:38;;;;;;;;;;;10.50;61.00;;;;;;5058110;28;20300;-74
2021/03/29 13:27:04;;;;;;;;;;;10.30;59.20;;;;;;5037789;28;19924;-73
2021/03/29 13:29:30;;;;;;;;;;;10.30;59.50;;;;;;5057865;28;19974;-73
2021/03/29 13:31:56;;;;;;;;;;;10.20;59.60;;;;;;5060052;28;19915;-73
2021/03/29 13:34:22;;;;;;;;;;;10.10;59.50;;;;;;5062683;28;19947;-73
2021/03/29 13:36:48;;;;;;;;;;;10.20;59.50;;;;;;5058421;28;20318;-73
2021/03/29 13:39:15;;;;;;;;;;;10.10;60.50;;;;;;5057597;28;20360;-72
2021/03/29 13:41:41;;;;;;;;;;;10.10;61.00;;;;;;5057720;28;19908;-73
2021/03/29 13:44:07;;;;;;;;;;;10.10;61.20;;;;;;5056840;28;19956;-73
2021/03/29 13:46:33;;;;;;;;;;;10.20;60.70;;;;;;5056990;28;19909;-73
2021/03/29 13:48:59;;;;;;;;;;;10.30;61.50;;;;;;5037526;28;19924;-72
2021/03/29 13:51:26;;;;;;;;;;;10.50;63.40;;;;;;5055120;28;20330;-73
2021/03/29 13:53:55;;;;;;;;;;;10.60;62.00;;;;;;5056686;28;20003;-73
2021/03/29 13:56:21;;;;;;;;;;;10.50;61.00;;;;;;5057090;28;19905;-73
2021/03/29 13:58:47;;;;;;;;;;;10.80;63.00;;;;;;5056118;28;19904;-72
2021/03/29 14:01:13;;;;;;;;;;;10.70;62.20;;;;;;5038578;28;19960;-73
2021/03/29 14:03:41;;;;;;;;;;;10.70;62.90;;;;;;5056636;28;20289;-72
2021/03/29 14:06:07;;;;;;;;;;;10.80;62.40;;;;;;5057262;28;19966;-73
2021/03/29 14:08:33;;;;;;;;;;;11.00;63.90;;;;;;5055690;28;19915;-73
2021/03/29 14:10:59;;;;;;;;;;;11.20;63.20;;;;;;5057201;28;20391;-75
2021/03/29 14:13:25;;;;;;;;;;;11.30;64.60;;;;;;5054361;28;19943;-73
2021/03/29 14:15:51;;;;;;;;;;;11.40;64.90;;;;;;5039745;28;19909;-74
2021/03/29 14:18:17;;;;;;;;;;;11.50;64.60;;;;;;5056184;28;19979;-74
2021/03/29 14:20:44;;;;;;;;;;;11.50;63.10;;;;;;5046999;28;19963;-73
2021/03/29 14:23:10;;;;;;;;;;;11.50;64.30;;;;;;5054514;28;19979;-73
2021/03/29 14:25:36;;;;;;;;;;;11.50;63.00;;;;;;5053912;28;20375;-73
2021/03/29 14:28:02;;;;;;;;;;;11.50;62.80;;;;;;5056458;28;20274;-73
2021/03/29 14:30:28;;;;;;;;;;;11.50;61.70;;;;;;5056597;28;19908;-73
2021/03/29 14:32:55;;;;;;;;;;;11.50;64.00;;;;;;5056994;28;20361;-73